Time;durP1;ratioP1;P1;durP2;ratioP2;P2;SDS_P1;SDS_P2;PMS_P1;PMS_P2;Temp;Humidity;BMP_temperature;BMP_pressure;BME280_temperature;BME280_humidity;BME280_pressure;Samples;Min_cycle;Max_cycle;Signal;HPM_P1;HPM_P2
2023/03/25 00:02:29;;;;;;;1.65;0.40;;;;;;;10.04;100.00;99326.00;5203745;28;20538;-73
2023/03/25 00:04:59;;;;;;;1.17;0.40;;;;;;;10.10;100.00;99336.13;5207295;28;20489;-74
2023/03/25 00:07:30;;;;;;;1.92;0.47;;;;;;;10.12;100.00;99319.47;5206884;28;20029;-74
2023/03/25 00:10:00;;;;;;;1.50;0.52;;;;;;;10.10;99.37;99320.47;5212204;28;20021;-74
2023/03/25 00:12:31;;;;;;;1.92;0.45;;;;;;;10.06;99.74;99324.16;5211472;28;20029;-74
2023/03/25 00:15:01;;;;;;;3.30;0.52;;;;;;;10.10;99.63;99317.84;5203412;28;20112;-74
2023/03/25 00:17:32;;;;;;;3.22;0.30;;;;;;;10.13;99.85;99312.50;5211249;28;20046;-73
2023/03/25 00:20:10;;;;;;;2.20;0.50;;;;;;;10.11;100.00;99315.16;5213625;28;20422;-72
2023/03/25 00:22:42;;;;;;;1.00;0.35;;;;;;;10.16;100.00;99313.16;5200788;28;20037;-73
2023/03/25 00:25:16;;;;;;;2.00;0.40;;;;;;;10.18;100.00;99308.69;5207549;28;20017;-73
2023/03/25 00:27:49;;;;;;;2.67;0.80;;;;;;;10.15;100.00;99313.25;5208784;28;20048;-74
2023/03/25 00:30:20;;;;;;;1.90;0.50;;;;;;;10.19;99.97;99309.53;5200243;28;20018;-73
2023/03/25 00:32:53;;;;;;;2.50;0.63;;;;;;;10.15;100.00;99313.25;5202480;28;20087;-72
2023/03/25 00:35:24;;;;;;;3.03;0.90;;;;;;;10.24;99.75;99313.59;5207661;28;20144;-73
2023/03/25 00:38:01;;;;;;;3.45;0.68;;;;;;;10.20;100.00;99308.59;5212792;28;20056;-75
2023/03/25 00:40:35;;;;;;;1.48;0.50;;;;;;;10.16;100.00;99304.50;5212827;28;20037;-73
2023/03/25 00:43:05;;;;;;;0.95;0.50;;;;;;;10.16;99.98;99301.88;5201540;28;20017;-74
2023/03/25 00:45:36;;;;;;;1.38;0.38;;;;;;;10.24;99.51;99310.97;5209332;28;20139;-72
2023/03/25 00:48:06;;;;;;;1.80;0.38;;;;;;;10.22;100.00;99301.53;5206087;28;20479;-73
2023/03/25 00:50:36;;;;;;;3.85;0.77;;;;;;;10.26;99.69;99303.91;5205043;28;20035;-74
2023/03/25 00:53:07;;;;;;;3.35;0.93;;;;;;;10.33;98.85;99301.81;5207713;28;20311;-73
2023/03/25 00:55:37;;;;;;;1.17;0.40;;;;;;;10.31;98.79;99304.47;5207618;28;20116;-72
2023/03/25 00:58:07;;;;;;;1.30;0.60;;;;;;;10.23;99.64;99300.59;5201309;28;20068;-74
2023/03/25 01:00:38;;;;;;;1.05;0.45;;;;;;;10.22;100.00;99293.69;5205391;28;20228;-74
2023/03/25 01:03:08;;;;;;;3.95;0.73;;;;;;;10.18;99.69;99305.25;5203991;28;20494;-73
2023/03/25 01:05:40;;;;;;;1.92;0.50;;;;;;;10.13;100.00;99305.47;5202437;28;20084;-73
2023/03/25 01:08:13;;;;;;;2.13;0.60;;;;;;;10.14;100.00;99301.13;5201363;28;20021;-75
2023/03/25 01:10:43;;;;;;;4.22;0.90;;;;;;;10.04;99.99;99299.91;5209344;28;20463;-72
2023/03/25 01:13:14;;;;;;;4.10;0.70;;;;;;;9.99;100.00;99304.50;5210337;28;20048;-73
2023/03/25 01:15:44;;;;;;;1.42;0.70;;;;;;;9.98;99.63;99295.81;5194765;28;20497;-72
2023/03/25 01:18:14;;;;;;;2.00;0.50;;;;;;;9.88;100.00;99293.78;5203677;28;20223;-73
2023/03/25 01:20:45;;;;;;;3.15;0.60;;;;;;;9.83;100.00;99298.44;5204044;28;20557;-74
2023/03/25 01:23:15;;;;;;;2.65;0.73;;;;;;;9.76;100.00;99297.91;5206870;28;20399;-75
2023/03/25 01:25:45;;;;;;;2.83;0.68;;;;;;;9.81;100.00;99300.28;5211188;28;20047;-75
2023/03/25 01:28:16;;;;;;;1.65;0.60;;;;;;;9.74;100.00;99304.09;5200943;28;20026;-74
2023/03/25 01:30:46;;;;;;;2.65;0.52;;;;;;;9.72;100.00;99295.53;5203242;28;20053;-73
2023/03/25 01:33:16;;;;;;;1.88;0.40;;;;;;;9.67;100.00;99295.75;5206103;28;20057;-73
2023/03/25 01:35:47;;;;;;;0.95;0.40;;;;;;;9.73;100.00;99297.22;5210417;28;20681;-72
2023/03/25 01:38:17;;;;;;;7.85;0.80;;;;;;;9.74;100.00;99307.56;5209919;28;20025;-72
2023/03/25 01:40:49;;;;;;;2.33;0.40;;;;;;;9.67;100.00;99305.38;5211919;28;20116;-73
2023/03/25 01:43:21;;;;;;;2.05;0.40;;;;;;;9.76;100.00;99307.47;5206003;28;20051;-74
2023/03/25 01:45:51;;;;;;;1.45;0.45;;;;;;;9.73;100.00;99303.28;5208553;28;20029;-73
2023/03/25 01:48:36;;;;;;;5.32;0.52;;;;;;;9.55;100.00;99300.78;5209533;28;20021;-73
2023/03/25 01:51:15;;;;;;;1.27;0.53;;;;;;;9.48;100.00;99299.41;5199221;28;20017;-74
2023/03/25 01:53:46;;;;;;;4.63;0.60;;;;;;;9.51;100.00;99294.03;5208659;28;20035;-73
2023/03/25 01:56:21;;;;;;;3.13;0.50;;;;;;;9.47;100.00;99297.75;5209673;28;20091;-72
2023/03/25 01:58:52;;;;;;;1.42;0.40;;;;;;;9.51;100.00;99287.03;5209526;28;20046;-72
2023/03/25 02:01:25;;;;;;;3.03;0.50;;;;;;;9.59;100.00;99291.88;5208408;28;20017;-72
2023/03/25 02:04:01;;;;;;;2.05;0.47;;;;;;;9.65;100.00;99286.34;5202067;28;20031;-74
2023/03/25 02:06:42;;;;;;;0.63;0.30;;;;;;;9.64;100.00;99284.66;5205958;28;20721;-73
2023/03/25 02:09:15;;;;;;;0.88;0.32;;;;;;;9.76;100.00;99282.25;5202532;28;20033;-73
2023/03/25 02:11:45;;;;;;;1.40;0.32;;;;;;;9.76;100.00;99277.03;5206382;28;20083;-73
2023/03/25 02:14:22;;;;;;;1.80;0.28;;;;;;;9.79;100.00;99279.47;5203303;28;20457;-73
2023/03/25 02:17:08;;;;;;;1.35;0.43;;;;;;;9.83;100.00;99275.78;5207820;28;20452;-73
2023/03/25 02:20:15;;;;;;;1.15;0.38;;;;;;;9.91;100.00;99278.81;5201877;28;20060;-72
2023/03/25 02:23:01;;;;;;;4.25;0.50;;;;;;;9.90;100.00;99276.28;5201790;28;20083;-73
2023/03/25 02:26:00;;;;;;;1.38;0.40;;;;;;;10.02;100.00;99283.50;5201305;28;20091;-74
2023/03/25 02:28:38;;;;;;;0.80;0.40;;;;;;;10.03;100.00;99274.75;5210052;28;20032;-73
2023/03/25 02:31:45;;;;;;;2.00;0.40;;;;;;;10.02;100.00;99267.84;5204054;28;20026;-73
2023/03/25 02:34:30;;;;;;;1.13;0.40;;;;;;;10.02;100.00;99273.06;5205020;28;20075;-72
2023/03/25 02:37:19;;;;;;;0.90;0.40;;;;;;;10.05;100.00;99272.88;5208269;28;20025;-74
2023/03/25 02:39:53;;;;;;;1.02;0.40;;;;;;;9.96;100.00;99274.19;5208847;28;20530;-73
2023/03/25 02:42:47;;;;;;;1.15;0.60;;;;;;;10.07;100.00;99268.44;5205639;28;20037;-74
2023/03/25 02:45:27;;;;;;;3.47;0.75;;;;;;;10.08;100.00;99283.16;5206059;28;20018;-73
2023/03/25 02:48:05;;;;;;;3.92;0.60;;;;;;;10.06;100.00;99271.97;5207662;28;20020;-74
2023/03/25 02:50:51;;;;;;;1.10;0.55;;;;;;;10.10;99.63;99268.25;5202834;28;20352;-73
2023/03/25 02:53:34;;;;;;;0.73;0.40;;;;;;;10.08;99.17;99273.56;5208409;28;20167;-74
2023/03/25 02:56:09;;;;;;;3.80;0.73;;;;;;;10.05;100.00;99265.06;5202817;28;20661;-72
2023/03/25 02:58:41;;;;;;;5.87;0.67;;;;;;;10.08;100.00;99270.09;5201519;28;20376;-74
2023/03/25 03:01:13;;;;;;;3.70;0.90;;;;;;;10.01;100.00;99274.81;5207021;28;20287;-73
2023/03/25 03:03:43;;;;;;;3.80;0.80;;;;;;;10.09;99.25;99267.44;5211749;28;20025;-76
2023/03/25 03:06:17;;;;;;;2.72;0.80;;;;;;;10.02;98.35;99262.63;5212023;28;20055;-74
2023/03/25 03:08:47;;;;;;;1.85;0.73;;;;;;;9.99;97.86;99255.75;5203526;28;20556;-73
2023/03/25 03:11:20;;;;;;;2.13;0.77;;;;;;;10.06;97.95;99256.31;5204177;28;20055;-74
2023/03/25 03:14:00;;;;;;;1.40;0.60;;;;;;;10.03;96.98;99251.25;5204189;28;20800;-73
2023/03/25 03:16:50;;;;;;;2.80;0.80;;;;;;;10.01;97.38;99263.50;5205022;28;20166;-75
2023/03/25 03:19:23;;;;;;;3.38;0.73;;;;;;;10.07;97.19;99265.81;5204573;28;20052;-73
2023/03/25 03:22:02;;;;;;;2.97;0.80;;;;;;;9.99;96.42;99267.97;5200735;28;20029;-74
2023/03/25 03:24:39;;;;;;;1.55;0.63;;;;;;;9.95;96.96;99266.44;5211210;28;20517;-73
2023/03/25 03:27:28;;;;;;;1.98;0.73;;;;;;;9.97;96.30;99257.59;5208185;28;20068;-75
2023/03/25 03:30:09;;;;;;;2.30;0.65;;;;;;;9.92;97.13;99264.84;5202027;28;20434;-73
2023/03/25 03:32:59;;;;;;;2.90;0.60;;;;;;;9.97;96.70;99262.84;5207334;28;20029;-74
2023/03/25 03:35:38;;;;;;;2.47;0.50;;;;;;;9.90;96.92;99266.72;5201202;28;20030;-75
2023/03/25 03:38:13;;;;;;;3.55;0.60;;;;;;;9.91;96.40;99264.94;5212306;28;20287;-73
2023/03/25 03:40:50;;;;;;;3.72;0.40;;;;;;;9.81;96.11;99269.78;5210579;28;20512;-73
2023/03/25 03:43:37;;;;;;;0.50;0.30;;;;;;;9.96;95.22;99276.81;5210756;28;20107;-74
2023/03/25 03:46:18;;;;;;;1.20;0.40;;;;;;;9.91;94.90;99273.59;5200113;28;20487;-73
2023/03/25 03:48:54;;;;;;;1.05;0.40;;;;;;;9.87;94.12;99279.06;5209057;28;20032;-73
2023/03/25 03:51:28;;;;;;;1.85;0.55;;;;;;;9.84;94.47;99281.84;5211825;28;20036;-76
2023/03/25 03:54:03;;;;;;;1.23;0.50;;;;;;;9.84;95.50;99279.22;5205396;28;20120;-71
2023/03/25 03:57:00;;;;;;;2.30;0.52;;;;;;;9.91;95.23;99286.66;5207928;28;20498;-75
2023/03/25 03:59:52;;;;;;;2.22;0.60;;;;;;;9.92;94.02;99284.88;5211398;28;20548;-72
2023/03/25 04:02:31;;;;;;;2.15;0.65;;;;;;;9.97;94.10;99281.09;5218587;28;20024;-72
2023/03/25 04:05:01;;;;;;;3.53;0.80;;;;;;;9.83;94.15;99275.78;5206071;28;20035;-75
2023/03/25 04:07:59;;;;;;;2.60;0.70;;;;;;;9.89;93.52;99279.81;5208886;28;20029;-73
2023/03/25 04:10:38;;;;;;;6.97;0.80;;;;;;;9.79;93.57;99279.47;5206217;28;20079;-72
2023/03/25 04:13:12;;;;;;;3.17;0.70;;;;;;;9.90;94.44;99271.06;5202460;28;20386;-73
2023/03/25 04:15:43;;;;;;;3.60;0.80;;;;;;;9.82;93.97;99275.88;5204227;28;20036;-75
2023/03/25 04:18:13;;;;;;;3.45;0.70;;;;;;;9.83;94.60;99274.94;5202706;28;20491;-72
2023/03/25 04:20:48;;;;;;;3.50;1.45;;;;;;;9.69;94.11;99272.22;5201698;28;20033;-73
2023/03/25 04:23:20;;;;;;;2.88;0.95;;;;;;;9.61;93.17;99279.59;5206466;28;20656;-74
2023/03/25 04:25:52;;;;;;;6.03;1.20;;;;;;;9.61;92.68;99284.81;5201145;28;20039;-73
2023/03/25 04:28:24;;;;;;;4.32;1.10;;;;;;;9.58;93.39;99283.22;5207022;28;20029;-74
2023/03/25 04:30:55;;;;;;;4.75;1.15;;;;;;;9.51;94.40;99278.41;5202882;28;20053;-73
2023/03/25 04:33:30;;;;;;;7.95;1.70;;;;;;;9.50;94.38;99276.72;5205565;28;20028;-74
2023/03/25 04:36:02;;;;;;;4.72;1.10;;;;;;;9.48;94.16;99286.38;5209056;28;20112;-74
2023/03/25 04:38:32;;;;;;;2.40;0.95;;;;;;;9.39;95.02;99279.88;5207847;28;20115;-73
2023/03/25 04:41:05;;;;;;;6.32;1.60;;;;;;;9.42;93.70;99282.31;5201564;28;20104;-73
2023/03/25 04:43:38;;;;;;;7.65;1.70;;;;;;;9.32;94.19;99278.47;5203639;28;20036;-73
2023/03/25 04:46:12;;;;;;;6.20;1.10;;;;;;;9.28;94.95;99273.53;5201731;28;20030;-74
2023/03/25 04:48:44;;;;;;;4.07;1.07;;;;;;;9.42;93.82;99281.47;5203221;28;20268;-76
2023/03/25 04:51:14;;;;;;;4.90;1.27;;;;;;;9.32;94.78;99273.28;5200274;28;20026;-72
2023/03/25 04:53:45;;;;;;;3.00;0.80;;;;;;;9.41;93.84;99271.97;5208949;28;20345;-73
2023/03/25 04:56:17;;;;;;;3.90;1.20;;;;;;;9.41;93.59;99261.53;5200563;28;20030;-73
2023/03/25 04:58:47;;;;;;;1.88;0.85;;;;;;;9.49;93.46;99281.06;5199331;28;20026;-73
2023/03/25 05:01:29;;;;;;;4.18;0.88;;;;;;;9.49;93.36;99275.03;5198892;28;20418;-72
2023/03/25 05:04:05;;;;;;;3.75;1.15;;;;;;;9.50;93.53;99282.75;5207469;28;20021;-72
2023/03/25 05:06:37;;;;;;;4.70;0.93;;;;;;;9.53;94.30;99276.53;5200024;28;20294;-72
2023/03/25 05:09:11;;;;;;;3.92;0.93;;;;;;;9.63;94.10;99280.38;5207772;28;20040;-73
2023/03/25 05:11:42;;;;;;;3.63;1.10;;;;;;;9.60;93.39;99277.91;5199370;28;20060;-73
2023/03/25 05:14:15;;;;;;;3.85;0.82;;;;;;;9.60;93.62;99273.53;5197381;28;20034;-73
2023/03/25 05:16:47;;;;;;;3.92;0.70;;;;;;;9.66;92.03;99278.44;5200403;28;20033;-72
2023/03/25 05:19:17;;;;;;;3.05;0.80;;;;;;;9.70;92.46;99269.53;5204120;28;20025;-73
2023/03/25 05:21:48;;;;;;;2.33;0.50;;;;;;;9.69;92.95;99278.25;5201090;28;20142;-73
2023/03/25 05:24:18;;;;;;;2.20;0.60;;;;;;;9.63;93.31;99278.59;5206021;28;20033;-73
2023/03/25 05:26:48;;;;;;;5.93;0.80;;;;;;;9.59;93.47;99284.03;5200738;28;20687;-74
2023/03/25 05:29:18;;;;;;;3.13;0.70;;;;;;;9.63;93.83;99293.41;5203004;28;20037;-74
2023/03/25 05:31:49;;;;;;;1.48;0.60;;;;;;;9.83;95.17;99306.25;5208610;28;20048;-72
2023/03/25 05:34:19;;;;;;;1.70;0.60;;;;;;;9.77;98.00;99289.16;5203362;28;20059;-73
2023/03/25 05:36:49;;;;;;;2.10;0.50;;;;;;;9.54;100.00;99299.94;5199236;28;20029;-73
2023/03/25 05:39:20;;;;;;;2.22;0.90;;;;;;;9.38;100.00;99306.00;5206505;28;20299;-73
2023/03/25 05:41:54;;;;;;;3.58;1.10;;;;;;;9.22;100.00;99313.78;5201242;28;20063;-73
2023/03/25 05:44:25;;;;;;;1.45;0.70;;;;;;;9.11;100.00;99298.75;5209208;28;20041;-73
2023/03/25 05:46:55;;;;;;;3.28;0.82;;;;;;;8.96;100.00;99308.19;5209088;28;20029;-73
2023/03/25 05:49:26;;;;;;;5.32;0.90;;;;;;;8.92;100.00;99295.38;5197103;28;20037;-71
2023/03/25 05:51:58;;;;;;;5.03;0.93;;;;;;;8.89;100.00;99303.34;5201995;28;20170;-73
2023/03/25 05:54:29;;;;;;;3.83;1.08;;;;;;;8.95;100.00;99298.69;5212045;28;20446;-73
2023/03/25 05:56:59;;;;;;;2.92;0.80;;;;;;;8.99;100.00;99304.56;5208369;28;20040;-73
2023/03/25 05:59:30;;;;;;;1.50;0.73;;;;;;;8.96;100.00;99304.72;5197897;28;20033;-70
2023/03/25 06:02:01;;;;;;;3.05;0.98;;;;;;;9.02;100.00;99305.25;5212662;28;20211;-74
2023/03/25 06:04:40;;;;;;;1.77;0.77;;;;;;;9.12;100.00;99310.84;5201751;28;20112;-74
2023/03/25 06:07:18;;;;;;;5.70;1.00;;;;;;;9.09;100.00;99301.41;5204312;28;20423;-74
2023/03/25 06:09:49;;;;;;;3.47;1.10;;;;;;;9.20;100.00;99304.34;5200785;28;20033;-73
2023/03/25 06:12:21;;;;;;;2.53;0.80;;;;;;;9.25;100.00;99303.19;5197655;28;20033;-73
2023/03/25 06:14:53;;;;;;;1.10;0.80;;;;;;;9.23;100.00;99312.00;5197447;28;20511;-74
2023/03/25 06:17:29;;;;;;;4.15;0.90;;;;;;;9.03;100.00;99301.72;5199573;28;20024;-74
2023/03/25 06:20:00;;;;;;;2.28;0.90;;;;;;;9.07;100.00;99308.47;5198141;28;20533;-73
2023/03/25 06:22:32;;;;;;;4.10;1.10;;;;;;;9.10;100.00;99308.31;5198557;28;20108;-72
2023/03/25 06:25:03;;;;;;;2.50;0.88;;;;;;;9.04;100.00;99306.03;5211761;28;20029;-73
2023/03/25 06:27:39;;;;;;;3.80;0.90;;;;;;;9.06;100.00;99305.97;5207497;28;20474;-74
2023/03/25 06:30:11;;;;;;;;;;;;;;;9.33;100.00;99302.81;5201661;28;20029;-73
2023/03/25 06:32:41;;;;;;;0.93;0.50;;;;;;;9.34;100.00;99301.88;5207006;28;19923;-73
2023/03/25 06:35:12;;;;;;;2.58;0.90;;;;;;;9.34;100.00;99305.31;5207543;28;20029;-75
2023/03/25 06:37:42;;;;;;;1.88;0.63;;;;;;;9.45;100.00;99304.81;5199395;28;20025;-73
2023/03/25 06:40:14;;;;;;;3.55;1.33;;;;;;;9.54;100.00;99309.53;5199346;28;20113;-75
2023/03/25 06:42:45;;;;;;;1.52;0.60;;;;;;;9.71;100.00;99306.88;5197646;28;20034;-73
2023/03/25 06:45:15;;;;;;;3.40;1.00;;;;;;;9.80;100.00;99309.03;5200409;28;20506;-73
2023/03/25 06:47:45;;;;;;;4.82;1.05;;;;;;;9.75;100.00;99316.22;5203195;28;20036;-73
2023/03/25 06:50:16;;;;;;;4.65;1.00;;;;;;;9.98;100.00;99315.88;5197879;28;20028;-75
2023/03/25 06:52:46;;;;;;;4.13;1.33;;;;;;;10.08;100.00;99322.31;5205769;28;20636;-74
2023/03/25 06:55:16;;;;;;;3.95;0.85;;;;;;;10.10;100.00;99315.25;5210945;28;20487;-73
2023/03/25 06:57:46;;;;;;;2.15;0.77;;;;;;;10.06;100.00;99311.13;5200762;28;20028;-72
2023/03/25 07:00:19;;;;;;;2.90;0.80;;;;;;;10.15;100.00;99313.25;5199805;28;20037;-72
2023/03/25 07:02:49;;;;;;;1.83;0.82;;;;;;;10.08;100.00;99317.09;5200423;28;20033;-72
2023/03/25 07:05:20;;;;;;;3.10;1.00;;;;;;;9.98;100.00;99316.72;5199014;28;20228;-73
2023/03/25 07:07:50;;;;;;;2.60;0.82;;;;;;;10.03;100.00;99311.28;5198684;28;20525;-72
2023/03/25 07:10:20;;;;;;;3.55;0.85;;;;;;;10.04;100.00;99312.97;5198778;28;20523;-73
2023/03/25 07:12:51;;;;;;;1.83;0.70;;;;;;;10.08;100.00;99312.72;5206321;28;20494;-73
2023/03/25 07:15:21;;;;;;;1.83;0.57;;;;;;;10.13;100.00;99317.72;5202241;28;20411;-74
2023/03/25 07:17:51;;;;;;;1.35;0.57;;;;;;;9.99;100.00;99315.78;5201937;28;20018;-74
2023/03/25 07:20:22;;;;;;;2.85;0.68;;;;;;;9.92;100.00;99317.03;5199842;28;20021;-73
2023/03/25 07:22:54;;;;;;;1.00;0.40;;;;;;;9.97;100.00;99325.47;5203011;28;20065;-74
2023/03/25 07:25:24;;;;;;;3.95;0.93;;;;;;;10.08;100.00;99324.91;5206434;28;20040;-73
2023/03/25 07:27:54;;;;;;;1.58;0.80;;;;;;;10.13;100.00;99325.53;5203461;28;20033;-73
2023/03/25 07:30:25;;;;;;;2.28;0.50;;;;;;;10.03;99.60;99335.59;5200113;28;20060;-72
2023/03/25 07:32:55;;;;;;;2.65;0.60;;;;;;;9.98;99.70;99331.53;5202145;28;20522;-73
2023/03/25 07:35:25;;;;;;;2.53;0.57;;;;;;;10.01;98.55;99318.31;5203892;28;20044;-73
2023/03/25 07:37:56;;;;;;;2.03;0.60;;;;;;;9.95;97.82;99326.47;5197284;28;20104;-73
2023/03/25 07:40:26;;;;;;;2.17;0.60;;;;;;;10.13;100.00;99320.31;5199464;28;20080;-75
2023/03/25 07:42:56;;;;;;;1.25;0.50;;;;;;;10.15;98.83;99324.50;5197896;28;20075;-73
2023/03/25 07:45:27;;;;;;;1.60;0.50;;;;;;;10.16;97.82;99325.38;5210240;28;20055;-73
2023/03/25 07:48:00;;;;;;;2.30;0.45;;;;;;;10.15;97.49;99324.50;5201506;28;20039;-73
2023/03/25 07:50:30;;;;;;;2.80;0.80;;;;;;;9.98;98.69;99326.31;5202593;28;20556;-74
2023/03/25 07:53:00;;;;;;;3.78;0.88;;;;;;;10.04;97.77;99326.00;5209305;28;20115;-72
2023/03/25 07:55:31;;;;;;;4.25;1.23;;;;;;;10.09;98.38;99324.00;5211779;28;20662;-74
2023/03/25 07:58:01;;;;;;;2.95;0.90;;;;;;;10.13;97.46;99328.16;5208903;28;20198;-72
2023/03/25 08:00:32;;;;;;;4.53;1.02;;;;;;;10.20;95.51;99326.88;5201045;28;20045;-71
2023/03/25 08:03:03;;;;;;;4.95;1.55;;;;;;;10.15;97.47;99336.75;5202542;28;20029;-72
2023/03/25 08:05:33;;;;;;;4.60;0.93;;;;;;;10.26;96.52;99332.63;5205328;28;20029;-73
2023/03/25 08:08:04;;;;;;;3.65;1.33;;;;;;;10.27;96.32;99333.44;5204502;28;20335;-73
2023/03/25 08:10:35;;;;;;;3.30;1.00;;;;;;;10.48;96.69;99327.06;5205433;28;20107;-73
2023/03/25 08:13:05;;;;;;;2.17;1.00;;;;;;;10.68;94.53;99330.25;5206470;28;20017;-75
2023/03/25 08:15:35;;;;;;;4.82;1.20;;;;;;;10.75;94.43;99336.84;5200385;28;20112;-72
2023/03/25 08:18:06;;;;;;;7.05;1.67;;;;;;;10.84;93.66;99341.53;5205140;28;20056;-73
2023/03/25 08:20:36;;;;;;;3.33;1.25;;;;;;;10.82;92.85;99342.56;5203440;28;20368;-73
2023/03/25 08:23:09;;;;;;;3.38;0.85;;;;;;;10.92;92.80;99328.88;5203930;28;21608;-72
2023/03/25 08:25:40;;;;;;;2.63;0.95;;;;;;;11.27;92.88;99340.78;5211925;28;20483;-75
2023/03/25 08:28:12;;;;;;;5.05;1.25;;;;;;;11.32;91.79;99328.28;5209832;28;20080;-73
2023/03/25 08:30:43;;;;;;;3.05;1.00;;;;;;;11.23;89.93;99328.78;5205607;28;20032;-73
2023/03/25 08:33:15;;;;;;;4.93;1.00;;;;;;;10.93;91.02;99335.81;5203933;28;20033;-72
2023/03/25 08:35:46;;;;;;;3.65;1.02;;;;;;;11.19;89.79;99338.59;5210515;28;20493;-72
2023/03/25 08:38:16;;;;;;;4.25;1.10;;;;;;;11.03;90.33;99342.16;5211788;28;20147;-74
2023/03/25 08:40:47;;;;;;;5.40;1.63;;;;;;;11.12;92.46;99346.88;5200569;28;20479;-73
2023/03/25 08:43:17;;;;;;;1.70;0.80;;;;;;;11.02;91.96;99334.44;5198703;28;20036;-73
2023/03/25 08:45:47;;;;;;;4.28;0.85;;;;;;;11.08;92.75;99340.97;5202096;28;20327;-73
2023/03/25 08:48:18;;;;;;;2.95;1.00;;;;;;;11.23;90.90;99337.50;5209480;28;20057;-73
2023/03/25 08:50:48;;;;;;;2.08;0.80;;;;;;;11.19;90.89;99333.38;5200422;28;20368;-75
2023/03/25 08:53:18;;;;;;;3.15;0.80;;;;;;;11.40;90.08;99339.13;5198602;28;20033;-73
2023/03/25 08:55:54;;;;;;;2.03;0.80;;;;;;;11.35;88.88;99334.19;5199487;28;20025;-72
2023/03/25 08:58:25;;;;;;;3.08;0.80;;;;;;;11.46;88.25;99326.50;5163696;28;20207;-73
2023/03/25 09:00:56;;;;;;;3.10;0.98;;;;;;;11.55;88.05;99323.38;5201901;28;20025;-75
2023/03/25 09:03:27;;;;;;;2.55;0.60;;;;;;;11.45;86.24;99332.69;5197224;28;20060;-73
2023/03/25 09:05:57;;;;;;;1.40;0.63;;;;;;;11.32;87.19;99334.34;5204361;28;20749;-73
2023/03/25 09:08:28;;;;;;;4.38;0.90;;;;;;;11.48;85.43;99329.88;5212810;28;20027;-73
2023/03/25 09:10:58;;;;;;;2.75;0.90;;;;;;;11.47;85.89;99333.44;5204845;28;20058;-76
2023/03/25 09:13:29;;;;;;;2.47;0.75;;;;;;;11.36;88.22;99335.84;5201229;28;20033;-75
2023/03/25 09:15:59;;;;;;;2.72;0.75;;;;;;;11.51;87.74;99334.97;5206317;28;20033;-72
2023/03/25 09:18:31;;;;;;;5.15;1.00;;;;;;;11.38;88.16;99338.38;5203426;28;20059;-73
2023/03/25 09:21:02;;;;;;;5.20;1.00;;;;;;;11.45;87.99;99329.25;5201926;28;20036;-73
2023/03/25 09:23:32;;;;;;;2.28;0.55;;;;;;;11.72;89.91;99332.84;5199206;28;20087;-72
2023/03/25 09:26:04;;;;;;;1.83;0.60;;;;;;;11.65;87.83;99329.75;5198454;28;20029;-72
2023/03/25 09:28:34;;;;;;;2.33;0.90;;;;;;;11.67;87.31;99332.28;5197363;28;20033;-73
2023/03/25 09:31:05;;;;;;;3.78;0.90;;;;;;;11.71;86.04;99326.78;5199106;28;20071;-73
2023/03/25 09:33:36;;;;;;;2.25;0.55;;;;;;;12.03;86.40;99325.69;5204894;28;20211;-72
2023/03/25 09:36:06;;;;;;;2.67;0.80;;;;;;;11.97;86.68;99323.44;5205895;28;20029;-73
2023/03/25 09:38:37;;;;;;;1.55;0.50;;;;;;;11.82;89.21;99340.06;5197255;28;20036;-73
2023/03/25 09:41:31;;;;;;;0.77;0.40;;;;;;;11.47;89.73;99330.81;5199810;28;20574;-73
2023/03/25 09:44:06;;;;;;;2.75;0.60;;;;;;;11.49;88.49;99346.44;5195471;28;20033;-74
2023/03/25 09:46:38;;;;;;;0.90;0.50;;;;;;;11.66;89.54;99352.41;5195268;28;20079;-75
2023/03/25 09:49:36;;;;;;;1.27;0.43;;;;;;;11.72;91.27;99346.78;5205858;28;20102;-75
2023/03/25 09:52:15;;;;;;;0.90;0.30;;;;;;;11.54;91.34;99358.31;5195574;28;20164;-74
2023/03/25 09:54:52;;;;;;;1.98;0.60;;;;;;;11.46;90.87;99360.53;5199388;28;20028;-73
2023/03/25 09:57:32;;;;;;;2.08;0.95;;;;;;;11.43;92.96;99363.31;5199302;28;20052;-76
2023/03/25 10:00:05;;;;;;;4.38;1.33;;;;;;;11.70;94.66;99359.13;5198396;28;20560;-74
2023/03/25 10:02:45;;;;;;;3.55;1.17;;;;;;;12.08;92.49;99362.03;5195973;28;20144;-74
2023/03/25 10:05:31;;;;;;;3.65;1.40;;;;;;;12.49;90.56;99353.31;5193959;28;20025;-74
2023/03/25 10:08:20;;;;;;;1.25;0.30;;;;;;;13.24;89.64;99354.53;5200101;28;20040;-73
2023/03/25 10:11:06;;;;;;;1.38;0.43;;;;;;;13.28;85.53;99352.53;5200716;28;20030;-73
2023/03/25 10:13:49;;;;;;;2.88;0.50;;;;;;;13.44;86.03;99356.66;5203562;28;20024;-76
2023/03/25 10:16:28;;;;;;;1.90;0.45;;;;;;;13.50;84.90;99356.28;5202229;28;20021;-71
2023/03/25 10:19:04;;;;;;;0.93;0.38;;;;;;;13.49;86.25;99338.84;5204894;28;20025;-73
2023/03/25 10:21:50;;;;;;;2.40;0.43;;;;;;;13.55;85.52;99334.97;5195952;28;20041;-71
2023/03/25 10:24:30;;;;;;;1.42;0.43;;;;;;;13.48;83.11;99346.81;5195437;28;20030;-75
2023/03/25 10:27:35;;;;;;;2.00;0.60;;;;;;;13.68;83.00;99334.03;5216369;28;20033;-73
2023/03/25 10:30:08;;;;;;;1.70;0.50;;;;;;;13.69;83.77;99347.97;5156036;28;20442;-73
2023/03/25 10:32:54;;;;;;;1.45;0.50;;;;;;;13.93;84.30;99330.56;5197439;28;20025;-75
2023/03/25 10:35:38;;;;;;;1.05;0.50;;;;;;;14.01;83.43;99328.25;5202058;28;20048;-73
2023/03/25 10:38:17;;;;;;;1.23;0.40;;;;;;;14.03;84.84;99334.22;5211025;28;20025;-72
2023/03/25 10:40:51;;;;;;;1.27;0.50;;;;;;;14.36;84.50;99319.63;5208696;28;20273;-73
2023/03/25 10:43:32;;;;;;;1.80;0.65;;;;;;;14.32;81.24;99309.44;5197334;28;20080;-75
2023/03/25 10:46:19;;;;;;;7.00;0.70;;;;;;;14.23;82.34;99315.34;5207199;28;20035;-73
2023/03/25 10:48:49;;;;;;;1.65;0.60;;;;;;;14.34;80.07;99308.38;5199760;28;20029;-73
2023/03/25 10:51:29;;;;;;;2.22;0.50;;;;;;;14.65;80.55;99323.66;5199825;28;20686;-74
2023/03/25 10:54:00;;;;;;;2.47;1.00;;;;;;;14.14;74.72;99305.44;5203280;28;20021;-73
2023/03/25 10:56:38;;;;;;;2.67;0.47;;;;;;;13.95;73.25;99310.28;5202647;28;20033;-73
2023/03/25 10:59:21;;;;;;;4.10;0.73;;;;;;;13.73;74.84;99307.47;5197340;28;20049;-75
2023/03/25 11:01:53;;;;;;;3.28;0.90;;;;;;;13.64;76.35;99315.97;5204845;28;20064;-73
2023/03/25 11:04:32;;;;;;;2.97;0.98;;;;;;;13.86;76.29;99300.41;5199058;28;20059;-74
2023/03/25 11:07:16;;;;;;;2.97;0.68;;;;;;;13.82;76.02;99293.69;5201732;28;20052;-73
2023/03/25 11:09:47;;;;;;;4.15;1.00;;;;;;;13.91;74.88;99308.84;5196875;28;20026;-74
2023/03/25 11:12:19;;;;;;;1.50;0.77;;;;;;;13.79;75.12;99309.66;5179814;28;20588;-73
2023/03/25 11:14:55;;;;;;;2.20;0.60;;;;;;;14.01;73.10;99304.59;5198951;28;20033;-73
2023/03/25 11:17:26;;;;;;;1.88;0.50;;;;;;;14.02;72.89;99311.53;5209253;28;20128;-72
2023/03/25 11:20:00;;;;;;;2.90;0.70;;;;;;;13.89;70.86;99315.97;5206113;28;20120;-73
2023/03/25 11:22:35;;;;;;;3.58;0.68;;;;;;;13.60;71.44;99317.94;5199597;28;20554;-74
2023/03/25 11:25:15;;;;;;;2.80;0.60;;;;;;;13.43;71.62;99322.66;5208012;28;20029;-72
2023/03/25 11:27:56;;;;;;;3.42;0.70;;;;;;;13.01;72.63;99321.09;5199837;28;20507;-73
2023/03/25 11:30:27;;;;;;;2.83;0.65;;;;;;;13.33;72.05;99322.44;5206181;28;20036;-73
2023/03/25 11:33:04;;;;;;;1.90;0.70;;;;;;;13.55;73.09;99316.59;5201540;28;20410;-74
2023/03/25 11:35:42;;;;;;;3.38;0.73;;;;;;;13.71;72.70;99309.38;5200404;28;20022;-72
2023/03/25 11:38:22;;;;;;;1.50;0.68;;;;;;;13.81;70.89;99307.78;5212877;28;20031;-74
2023/03/25 11:40:56;;;;;;;4.05;0.90;;;;;;;13.64;70.64;99303.69;5217541;28;20029;-73
2023/03/25 11:43:35;;;;;;;2.17;0.80;;;;;;;13.61;70.19;99297.78;5200854;28;20053;-73
2023/03/25 11:46:14;;;;;;;3.30;0.90;;;;;;;13.53;70.80;99297.47;5201664;28;20022;-73
2023/03/25 11:48:45;;;;;;;3.42;0.80;;;;;;;13.52;71.45;99293.16;5205523;28;20137;-75
2023/03/25 11:51:27;;;;;;;3.38;0.93;;;;;;;13.57;71.12;99288.47;5207249;28;20021;-73
2023/03/25 11:54:01;;;;;;;3.95;1.13;;;;;;;13.38;71.46;99295.91;5209270;28;20029;-73
2023/03/25 11:56:35;;;;;;;2.03;0.70;;;;;;;13.45;71.06;99284.03;5213613;28;20037;-73
2023/03/25 11:59:21;;;;;;;3.67;0.73;;;;;;;13.50;71.08;99280.16;5204348;28;20033;-74
2023/03/25 12:02:15;;;;;;;1.92;0.77;;;;;;;13.74;69.74;99275.00;5200325;28;20135;-73
2023/03/25 12:05:02;;;;;;;3.08;0.75;;;;;;;13.79;69.22;99283.41;5202820;28;20025;-74
2023/03/25 12:07:47;;;;;;;4.07;0.90;;;;;;;13.81;69.11;99282.38;5207586;28;20393;-73
2023/03/25 12:10:30;;;;;;;2.55;1.05;;;;;;;13.77;69.29;99274.78;5204777;28;20079;-74